Current Weather Conditions: station 46145

sailwx.info

Wind from 110 at 7 knots gusting 11

Wave height 1.4 meters (4 feet), 10 second period

Air temperature 9.4° C
Water temperature 9.9° C

Last reported at 2016-Apr-30 01:00 UTC.
Time now 2016-Apr-30 03:22 UTC

Location: N 54°24' W 132°24'.
View on Google Maps.

See reports from other nearby stations

  
Tides and Currents Weather Stations Pressure Air Temp Water Temp Dewpoint Dewpoint Depression Visibility Wind Speed Wind Dir Waves Ship Positions
date/time (UTC)wind fromknots sea level pressurealtimeterstation pressurevisibilityair tempwater tempwave heightnotes
2016-Apr-30 01:00 110 7 gusting 11 9.4 9.9 1.4
2016-Apr-30 00:00 090 5 gusting 7 9.110.0 1.6
2016-Apr-29 23:00 100 3 gusting 5 9.1 9.8 1.6
2016-Apr-29 22:00 150 3 gusting 3 9.0 9.7 1.5
2016-Apr-29 21:00 130 5 gusting 7 8.6 9.6 1.3
2016-Apr-29 20:00 150 3 gusting 5 8.6 9.5 1.4
2016-Apr-29 19:00 190 5 gusting 5 8.6 9.4 1.4
2016-Apr-29 18:00 180 5 gusting 7 8.4 9.1 1.3
2016-Apr-29 17:00 190 7 gusting 9 8.2 9.1 1.3
2016-Apr-29 16:00 190 7 gusting 9 7.9 9.0 1.4
2016-Apr-29 15:00 210 7 gusting 9 8.0 8.9 1.5
2016-Apr-29 14:00 210 9 gusting 11 7.6 8.8 1.4
2016-Apr-29 13:00 210 7 gusting 9 7.4 8.9 1.3
2016-Apr-29 12:00 220 9 gusting 13 7.7 8.9 1.3
2016-Apr-29 11:00 220 7 gusting 11 7.8 8.9 1.5
2016-Apr-29 09:00 250 13 gusting 15 8.2 8.9 1.5
2016-Apr-29 08:00 250 11 gusting 15 8.1 8.9 1.5
2016-Apr-29 07:00 250 13 gusting 15 8.3 9.0 1.4
2016-Apr-29 06:00 270 13 gusting 17 8.3 8.9 1.5
2016-Apr-29 05:00 260 13 gusting 17 8.4 8.9 1.6
2016-Apr-29 04:00 250 13 gusting 17 8.4 8.9 1.6
2016-Apr-29 03:00 270 13 gusting 17 8.4 9.0 1.6
2016-Apr-29 02:00 260 15 gusting 17 8.7 9.0 1.7
2016-Apr-29 01:00 270 15 gusting 17 8.9 9.1 1.7
2016-Apr-29 00:00 260 15 gusting 19 8.8 9.0 1.9
2016-Apr-28 23:00 250 9 gusting 11 8.3 9.0 1.9
2016-Apr-28 22:00 150 19 gusting 23 8.9 9.0 2.0
2016-Apr-28 21:00 140 19 gusting 23 8.8 9.0 2.1
2016-Apr-28 20:00 130 19 gusting 23 9.1 9.0 1.9
2016-Apr-28 19:00 130 19 gusting 23 9.2 9.0 1.8
2016-Apr-28 18:00 130 19 gusting 23 9.0 8.9 2.0
2016-Apr-28 17:00 130 19 gusting 23 8.7 8.9 1.9
2016-Apr-28 16:00 130 21 gusting 27 8.5 9.0 1.7
2016-Apr-28 15:00 130 19 gusting 23 8.6 9.0 1.7
2016-Apr-28 14:00 130 19 gusting 25 8.5 9.0 1.7
2016-Apr-28 12:00 150 11 gusting 15 8.4 9.0 1.8
2016-Apr-28 11:00 150 15 gusting 17 8.6 9.0 1.7
2016-Apr-28 10:00 120 11 gusting 13 8.8 9.0 1.9
2016-Apr-28 09:00 130 7 gusting 11 8.8 9.0 2.0
2016-Apr-28 08:00 140 7 gusting 11 8.8 9.0 2.1
2016-Apr-28 07:00 150 5 gusting 5 9.0 9.2 2.2
2016-Apr-28 06:00 160 7 gusting 11 9.2 9.3 2.1
2016-Apr-28 05:00 130 9 gusting 13 9.3 9.2 2.1
2016-Apr-28 04:00 280 3 gusting 5 9.4 9.2 2.2
2016-Apr-28 03:00 160 9 gusting 11 9.5 9.2 2.1